AirNav   Pilot Hours Calculator
 
 569 users online  

4C4 Gifford Field Airport
Colebrook, New Hampshire, USA

GOING TO COLEBROOK?


FAA INFORMATION EFFECTIVE 07 NOVEMBER 2019

Location

FAA Identifier: 4C4
Lat/Long: 44-53-15.0850N 071-30-27.8082W
44-53.251417N 071-30.463470W
44.8875236,-71.5077245
(estimated)
Elevation: 1017.3 ft. / 310 m (estimated)
Variation: 17W (1985)
From city: 1 mile SW of COLEBROOK, NH
Time zone: UTC -5 (UTC -4 during Daylight Saving Time)
Zip code: 03576

Airport Operations

Airport use: Open to the public
Activation date: 10/1904
Control tower: no
ARTCC: BOSTON CENTER
FSS: BANGOR FLIGHT SERVICE STATION
NOTAMs facility: BGR (NOTAM-D service available)
Attendance: UNATNDD
Wind indicator: yes
Segmented circle: no

Airport Communications

CTAF/UNICOM: 122.8

Nearby radio navigation aids

VOR radial/distance  VOR name  Freq  Var
BMLr335/20.5BERLIN VOR/DME110.4017W
YSCr172/28.3SHERBROOKE VOR/DME113.2017W

 
NDB name  Hdg/Dist  Freq  Var  ID
RANGELEY283/32.322118WRQM .-. --.- --
MAHN031/32.438617WGMA --. -- .-

Airport Services

Parking: tiedowns
Airframe service: NONE
Powerplant service: NONE
Bottled oxygen: NONE
Bulk oxygen: NONE

Runway Information

Runway 4/22

Dimensions: 2423 x 60 ft. / 739 x 18 m
ROAD TRAVERSES RWY 425 FT FM RWY 04 THR.
Surface: turf, in good condition
Runway edge markings: RWY 22 EDGES & ENDS MKD WITH YELLOW CONES.
Gradient: NE
RUNWAY 4  RUNWAY 22
Latitude: 44-53.068802N44-53.436138N
Longitude: 071-30.571972W071-30.353828W
Elevation: 1005.0 ft.1016.0 ft.
Traffic pattern: leftleft
Displaced threshold: 433 ft.no
Markings: NSTDNSTD
Touchdown point: yes, no lightsyes, no lights
Obstructions: 72 ft. trees, 56 ft. from runway, 126 ft. right of centerline
APCH SLOPE 3:1 TO DSPLCD THR.
15 ft. road, 30 ft. from runway

Airport Ownership and Management from official FAA records

Ownership: Privately-owned
Owner: IAN & CHRISTINA STEVENSON
888 AVE ASHFORD #7
SAN JUAN, PR 00907
Phone 787 565-4760
Manager: DOUGLAS BROOKS
14 DEPOT STREET
COLEBROOK, NH 03576
Phone 603 237-4914
AFTER HOURS CALL (603) 246-8222

Airport Operational Statistics

Aircraft based on the field: 7
Single engine airplanes: 7
    
Aircraft operations: avg 34/week *
57% local general aviation
43% transient general aviation
* for 12-month period ending 01 August 2018

Additional Remarks

RWY 04-22 STRIP SOFT IN SPRING. DT WET AREAS ALL YEAR.
RY 22 +80 FT TREES 900 FT FROM THR.
RY 04/22 CLSD NOV TO MAY EXCEPT SKI ACFT. CALL (603) 237-4914 FOR AIRFIELD CONDITIONS.
ROAD TRAVERSES RY 450 FT FM RY 04 THLD.
FOR CD CTC BOSTON ARTCC AT 603-879-6859.
7 FT CROPS IMT WEST OF RWY DURG SUMMER.

Instrument Procedures

There are no published instrument procedures at 4C4.

Some nearby airports with instrument procedures:

KBML - Berlin Regional Airport (23 nm SE)
KCDA - Caledonia County Airport (29 nm SW)
KEFK - Northeast Kingdom International Airport (31 nm W)
KHIE - Mount Washington Regional Airport (31 nm S)
M57 - Rangeley Lake Seaplane Base (36 nm E)
 
Loc | Ops | Rwys | IFR | FBO | Links
Com | Nav | Svcs | Stats | Notes
Area around 4C4 (Gifford Field Airport)
 
Road maps at: MapQuest Bing Google
 
Aerial photo
WARNING: Photo may not be current or correct
Aerial photo of 4C4 (Gifford Field Airport)
Do you have a better or more recent aerial photo of Gifford Field Airport that you would like to share? If so, please send us your photo.

 
Sectional chart

 
Airport distance calculator
Flying to Gifford Field Airport? Find the distance to fly.

From to 4C4

Sunrise and sunset
Times for 20-Nov-2019
 Local
(UTC-5)
 Zulu
(UTC)
Morning civil twilight06:1911:19
Sunrise06:5111:51
Sunset16:1221:12
Evening civil twilight16:4421:44

Current date and time
Zulu (UTC)  20-Nov-2019 06:11:18
Local (UTC-5)  20-Nov-2019 01:11:18
 
METAR
KBML 
23nm SE 
200552Z AUTO 00000KT 1/2SM FG VV003 01/00 A2984 RMK AO2 SLP116 60000 T00110000 10011 20006 50002
CWQH 
29nm N 
200500Z AUTO 24001KT M00/M01 RMK AO1 SOG 07 3004 SLP134 T10021010
KCDA 
29nm SW 
200556Z AUTO 00000KT 10SM OVC013 00/00 A2986 RMK AO2 T00031002 10005 20001
KEFK 
30nm W 
200557Z AUTO 31005KT 1 3/4SM BR OVC002 M01/M01 A2989 RMK AO2 T10121012 11005 21012
KHIE 
31nm S 
200552Z AUTO 00000KT 1/4SM FG VV003 01/M01 A2984 RMK AO2 SLP116 T00061006 10006 20006 58003
CYSC 
34nm N 
200603Z AUTO 30005KT 1 3/4SM BR OVC002 M01/M01 A2988 RMK SLP131
K8B0 
35nm E 
200555Z AUTO 07005KT 3/4SM BR BKN001 OVC007 00/00 A2981 RMK AO2
K1V4 
36nm SW 
200554Z AUTO 01/01 A2985 RMK AO1 SLP117 T00060006 10006 20006 58003
CWTT 
36nm NW 
200500Z AUTO 30007KT M01/M01 RMK AO1 T10071010
KMWN 
38nm S 
200548Z 35019KT 1/8SM FZFG VV001 M03/M03 RMK VRY LGT ICG MOON AND STARS DMLY VSBL 4/008 11022 21039
TAF
KHIE 
31nm S 
200532Z 2006/2106 00000KT 3/4SM BR OVC002 FM200800 00000KT 2SM BR OVC003 FM201500 00000KT 4SM -SNRA BR OVC008
CYSC 
34nm N 
200107Z 2001/2003 VRB03KT P6SM SCT004 OVC012 TEMPO 2001/2003 1SM -SN BR OVC004 RMK FCST BASED ON AUTO OBS. NXT FCST WILL BE ISSUED AT 201045Z
NOTAMs
Click for the latest NOTAMs
NOTAMs are issued by the DoD/FAA and will open in a separate window not controlled by AirNav.

 

 
 

Would you like to see your business listed on this page?

 If your business provides an interesting product or service to pilots, flight crews, aircraft, or users of the Gifford Field Airport, you should consider listing it here.  To start the listing process, click on the button below
 
Add a business
 

Other Pages about Gifford Field Airport

Update a link
 
Copyright © AirNav, LLC. All rights reserved. Privacy Policy  Contact